Currently 54°F in Hemet, California, USA
54°F
54°F / 45°F
calm
0.00"
Wednesday, January 19, 2022 9:06 AM PST

Hemet, California Weather Summary
Last 36 Hours

Temperature Winds Hourly Humidity Dewpoint
Time Report Norm Report Norm Max Gusts Precip. Rpt. Norm Rpt. Norm Pressure
1,2Wed 09:06 AM  53.8°F  55°F  calm  calm  none  0.00"  72%  45%  45°F  34°F  30.20"
Wed 09:00 AM  53.3°F  55°F  calm  calm  none  0.00"  74%  45%  45°F  33°F  30.20"
Wed 08:00 AM  46.7°F  50°F  calm  calm  none  0.00"  84%  47%  42°F  30°F  30.18"
Wed 07:00 AM  46.4°F  48°F  calm  1 mph  none  0.00"  84%  48%  42°F  29°F  30.18"
3Wed 06:19 AM  45.2°F  48°F  calm  1 mph  none  ----  84%  48%  40°F  29°F  30.17"
Wed 06:00 AM  46.1°F  48°F  calm  1 mph  none  0.00"  85%  48%  42°F  29°F  30.17"
Wed 05:00 AM  47.1°F  49°F  calm  1 mph  none  0.00"  85%  48%  43°F  29°F  30.16"
Wed 04:00 AM  47.3°F  49°F  calm  1 mph  none  0.00"  86%  47%  43°F  29°F  30.14"
Wed 03:00 AM  49.2°F  49°F  calm  1 mph  none  0.00"  86%  48%  45°F  29°F  30.15"
Wed 02:00 AM  51.0°F  49°F  calm  1 mph  none  0.00"  86%  47%  47°F  29°F  30.14"
Wed 01:00 AM  51.6°F  50°F  calm  1 mph  none  0.00"  86%  47%  47°F  30°F  30.15"
Wed 12:01 AM  51.7°F  50°F  calm  1 mph  none  0.00"  85%  47%  47°F  30°F  30.15"
Tue 11:00 PM  52.2°F  50°F  calm  1 mph  none  0.00"  85%  47%  48°F  30°F  30.15"
Tue 10:00 PM  52.6°F  51°F  calm  1 mph  3 mph  0.00"  84%  47%  48°F  30°F  30.16"
Tue 09:00 PM  53.2°F  52°F  calm  1 mph  2 mph  0.00"  83%  46%  48°F  31°F  30.14"
Tue 08:00 PM  54.1°F  53°F  calm  1 mph  none  0.00"  82%  45%  49°F  31°F  30.12"
Tue 07:00 PM  54.7°F  54°F  calm  1 mph  none  0.00"  80%  45%  48°F  32°F  30.10"
Tue 06:00 PM  55.3°F  56°F  calm  1 mph  none  0.00"  75%  43%  47°F  32°F  30.09"
Tue 05:00 PM  56.0°F  60°F  calm  1 mph  none  0.00"  70%  39%  46°F  34°F  30.09"
Tue 04:00 PM  57.0°F  64°F  calm  1 mph  none  0.00"  67%  34%  46°F  34°F  30.08"
Tue 03:00 PM  57.2°F  65°F  calm  2 mph  none  0.00"  69%  32%  47°F  33°F  30.07"
Tue 02:00 PM  56.7°F  65°F  calm  2 mph  none  0.00"  72%  32%  47°F  33°F  30.07"
Tue 01:00 PM  56.2°F  64°F  calm  1 mph  1 mph  0.00"  78%  33%  49°F  33°F  30.07"
Tue 12:00 PM  53.9°F  62°F  calm  1 mph  2 mph  0.00"  87%  36%  50°F  34°F  30.09"
Tue 11:00 AM  52.6°F  60°F  calm  1 mph  3 mph  0.00"  88%  39%  49°F  34°F  30.11"
Tue 10:00 AM  52.9°F  58°F  calm  calm  1 mph  0.00"  89%  43%  50°F  34°F  30.11"
Tue 09:00 AM  51.9°F  55°F  calm  calm  none  0.00"  88%  44%  48°F  33°F  30.11"
Tue 08:00 AM  51.0°F  50°F  calm  calm  none  0.00"  88%  46%  47°F  30°F  30.09"
Tue 07:00 AM  50.2°F  48°F  calm  1 mph  none  0.00"  87%  47%  46°F  28°F  30.08"
Tue 06:00 AM  50.2°F  48°F  calm  1 mph  none  0.04"  87%  46%  46°F  28°F  30.08"
Tue 05:00 AM  50.5°F  49°F  calm  1 mph  none  0.05"  85%  47%  46°F  28°F  30.08"
Tue 04:00 AM  50.5°F  49°F  calm  1 mph  none  0.00"  84%  47%  46°F  28°F  30.06"
Tue 03:00 AM  51.3°F  49°F  calm  1 mph  none  0.00"  84%  47%  46°F  29°F  30.06"
Tue 02:00 AM  52.0°F  49°F  calm  1 mph  none  0.00"  85%  46%  47°F  29°F  30.08"
Tue 01:00 AM  52.5°F  50°F  calm  1 mph  none  0.00"  85%  46%  48°F  29°F  30.07"
Tue 12:01 AM  52.9°F  50°F  calm  1 mph  none  0.00"  84%  46%  48°F  29°F  30.07"
Mon 11:00 PM  53.8°F  50°F  calm  1 mph  none  0.00"  84%  46%  49°F  30°F  30.08"
Mon 10:00 PM  53.9°F  51°F  calm  1 mph  none  0.00"  84%  46%  49°F  30°F  30.09"

  1. Current weather data. No green row appears if the current weather data is also the high or low for the current day.
  2. High temperature for the current day.
  3. Low temperature for the current day.

The Hemet weather pages are a service of WeatherCurrents. Hemet, California is located in the San Jacinto Valley, in western Riverside County, at the foot of the San Jacinto mountains.
Copyright ©2022  WeatherCurrents. All rights reserved. - Submit questions and comments - Privacy Policy

This page automatically refreshes every 10 minutes.